sensor_id;sensor_type;location;lat;lon;timestamp;P1;durP1;ratioP1;P2;durP2;ratioP2
23578;SDS011;11967;50.852;4.400;2022-10-16T00:01:24;3.05;;;1.20;;
23578;SDS011;11967;50.852;4.400;2022-10-16T00:03:51;3.35;;;1.10;;
23578;SDS011;11967;50.852;4.400;2022-10-16T00:06:18;1.85;;;1.00;;
23578;SDS011;11967;50.852;4.400;2022-10-16T00:08:45;2.40;;;0.93;;
23578;SDS011;11967;50.852;4.400;2022-10-16T00:11:15;1.38;;;0.82;;
23578;SDS011;11967;50.852;4.400;2022-10-16T00:13:46;2.15;;;1.00;;
23578;SDS011;11967;50.852;4.400;2022-10-16T00:16:13;4.22;;;1.15;;
23578;SDS011;11967;50.852;4.400;2022-10-16T00:18:39;3.83;;;1.30;;
23578;SDS011;11967;50.852;4.400;2022-10-16T00:21:07;2.47;;;1.13;;
23578;SDS011;11967;50.852;4.400;2022-10-16T00:23:37;2.17;;;1.20;;
23578;SDS011;11967;50.852;4.400;2022-10-16T00:26:04;1.92;;;1.25;;
23578;SDS011;11967;50.852;4.400;2022-10-16T00:28:31;4.32;;;1.20;;
23578;SDS011;11967;50.852;4.400;2022-10-16T00:30:57;2.97;;;1.05;;
23578;SDS011;11967;50.852;4.400;2022-10-16T00:33:23;1.13;;;1.00;;
23578;SDS011;11967;50.852;4.400;2022-10-16T00:35:49;5.25;;;1.00;;
23578;SDS011;11967;50.852;4.400;2022-10-16T00:38:15;2.25;;;1.30;;
23578;SDS011;11967;50.852;4.400;2022-10-16T00:40:41;2.80;;;1.30;;
23578;SDS011;11967;50.852;4.400;2022-10-16T00:43:14;4.40;;;1.40;;
23578;SDS011;11967;50.852;4.400;2022-10-16T00:46:00;2.22;;;1.27;;
23578;SDS011;11967;50.852;4.400;2022-10-16T00:48:27;3.42;;;1.20;;
23578;SDS011;11967;50.852;4.400;2022-10-16T00:50:54;1.67;;;1.05;;
23578;SDS011;11967;50.852;4.400;2022-10-16T00:53:20;1.25;;;1.00;;
23578;SDS011;11967;50.852;4.400;2022-10-16T00:55:47;1.38;;;1.08;;
23578;SDS011;11967;50.852;4.400;2022-10-16T00:58:12;2.40;;;1.25;;
23578;SDS011;11967;50.852;4.400;2022-10-16T01:00:38;4.22;;;1.20;;
23578;SDS011;11967;50.852;4.400;2022-10-16T01:03:21;2.05;;;1.30;;
23578;SDS011;11967;50.852;4.400;2022-10-16T01:06:39;3.35;;;1.58;;
23578;SDS011;11967;50.852;4.400;2022-10-16T01:14:28;4.40;;;1.42;;
23578;SDS011;11967;50.852;4.400;2022-10-16T01:22:18;2.55;;;1.42;;
23578;SDS011;11967;50.852;4.400;2022-10-16T01:24:49;2.53;;;1.45;;
23578;SDS011;11967;50.852;4.400;2022-10-16T01:27:21;8.43;;;1.67;;
23578;SDS011;11967;50.852;4.400;2022-10-16T01:29:55;4.38;;;1.52;;
23578;SDS011;11967;50.852;4.400;2022-10-16T01:35:30;3.92;;;1.30;;
23578;SDS011;11967;50.852;4.400;2022-10-16T01:38:12;2.05;;;1.15;;
23578;SDS011;11967;50.852;4.400;2022-10-16T01:40:44;3.47;;;1.20;;
23578;SDS011;11967;50.852;4.400;2022-10-16T01:43:16;5.63;;;1.30;;
23578;SDS011;11967;50.852;4.400;2022-10-16T01:45:45;4.10;;;1.33;;
23578;SDS011;11967;50.852;4.400;2022-10-16T01:48:13;6.50;;;1.33;;
23578;SDS011;11967;50.852;4.400;2022-10-16T01:50:42;2.38;;;1.67;;
23578;SDS011;11967;50.852;4.400;2022-10-16T01:53:13;3.00;;;1.45;;
23578;SDS011;11967;50.852;4.400;2022-10-16T01:55:41;3.80;;;1.52;;
23578;SDS011;11967;50.852;4.400;2022-10-16T01:58:11;3.25;;;1.50;;
23578;SDS011;11967;50.852;4.400;2022-10-16T02:00:39;1.73;;;1.23;;
23578;SDS011;11967;50.852;4.400;2022-10-16T02:03:07;3.47;;;1.45;;
23578;SDS011;11967;50.852;4.400;2022-10-16T02:05:44;3.05;;;1.38;;
23578;SDS011;11967;50.852;4.400;2022-10-16T02:08:13;3.22;;;1.35;;
23578;SDS011;11967;50.852;4.400;2022-10-16T02:10:39;4.78;;;1.50;;
23578;SDS011;11967;50.852;4.400;2022-10-16T02:15:35;7.15;;;1.80;;
23578;SDS011;11967;50.852;4.400;2022-10-16T02:18:02;5.43;;;1.40;;
23578;SDS011;11967;50.852;4.400;2022-10-16T02:20:29;1.65;;;1.20;;
23578;SDS011;11967;50.852;4.400;2022-10-16T02:23:01;4.07;;;1.20;;
23578;SDS011;11967;50.852;4.400;2022-10-16T02:25:32;4.90;;;1.35;;
23578;SDS011;11967;50.852;4.400;2022-10-16T02:30:49;7.47;;;1.67;;
23578;SDS011;11967;50.852;4.400;2022-10-16T02:33:21;4.65;;;1.60;;
23578;SDS011;11967;50.852;4.400;2022-10-16T02:35:48;4.35;;;1.40;;
23578;SDS011;11967;50.852;4.400;2022-10-16T02:38:16;5.25;;;1.90;;
23578;SDS011;11967;50.852;4.400;2022-10-16T02:40:43;5.85;;;1.77;;
23578;SDS011;11967;50.852;4.400;2022-10-16T02:43:09;4.57;;;1.67;;
23578;SDS011;11967;50.852;4.400;2022-10-16T02:45:35;4.97;;;1.60;;
23578;SDS011;11967;50.852;4.400;2022-10-16T02:48:01;4.03;;;1.92;;
23578;SDS011;11967;50.852;4.400;2022-10-16T02:50:26;2.78;;;1.52;;
23578;SDS011;11967;50.852;4.400;2022-10-16T02:52:52;2.90;;;1.52;;
23578;SDS011;11967;50.852;4.400;2022-10-16T02:55:18;6.78;;;1.77;;
23578;SDS011;11967;50.852;4.400;2022-10-16T02:57:46;7.07;;;1.77;;
23578;SDS011;11967;50.852;4.400;2022-10-16T03:00:13;4.18;;;1.60;;
23578;SDS011;11967;50.852;4.400;2022-10-16T03:02:40;5.72;;;1.65;;
23578;SDS011;11967;50.852;4.400;2022-10-16T03:05:06;4.82;;;1.80;;
23578;SDS011;11967;50.852;4.400;2022-10-16T03:07:32;9.77;;;2.00;;
23578;SDS011;11967;50.852;4.400;2022-10-16T03:09:58;2.83;;;1.60;;
23578;SDS011;11967;50.852;4.400;2022-10-16T03:12:27;8.05;;;1.95;;
23578;SDS011;11967;50.852;4.400;2022-10-16T03:14:54;3.97;;;1.67;;
23578;SDS011;11967;50.852;4.400;2022-10-16T03:17:21;4.80;;;1.77;;
23578;SDS011;11967;50.852;4.400;2022-10-16T03:19:47;2.95;;;1.55;;
23578;SDS011;11967;50.852;4.400;2022-10-16T03:22:13;4.53;;;1.90;;
23578;SDS011;11967;50.852;4.400;2022-10-16T03:24:38;3.47;;;1.70;;
23578;SDS011;11967;50.852;4.400;2022-10-16T03:27:04;7.07;;;1.70;;
23578;SDS011;11967;50.852;4.400;2022-10-16T03:29:30;6.53;;;2.03;;
23578;SDS011;11967;50.852;4.400;2022-10-16T03:31:57;5.50;;;1.85;;
23578;SDS011;11967;50.852;4.400;2022-10-16T03:34:22;3.58;;;1.60;;
23578;SDS011;11967;50.852;4.400;2022-10-16T03:36:49;6.53;;;2.00;;
23578;SDS011;11967;50.852;4.400;2022-10-16T03:39:14;5.82;;;1.70;;
23578;SDS011;11967;50.852;4.400;2022-10-16T03:41:40;6.18;;;1.73;;
23578;SDS011;11967;50.852;4.400;2022-10-16T03:44:06;4.07;;;1.52;;
23578;SDS011;11967;50.852;4.400;2022-10-16T03:46:31;4.18;;;1.42;;
23578;SDS011;11967;50.852;4.400;2022-10-16T03:48:57;3.58;;;1.60;;
23578;SDS011;11967;50.852;4.400;2022-10-16T03:51:23;5.93;;;2.00;;
23578;SDS011;11967;50.852;4.400;2022-10-16T03:53:49;3.67;;;1.40;;
23578;SDS011;11967;50.852;4.400;2022-10-16T03:56:14;8.45;;;1.83;;
23578;SDS011;11967;50.852;4.400;2022-10-16T03:58:40;4.43;;;1.63;;
23578;SDS011;11967;50.852;4.400;2022-10-16T04:01:06;5.95;;;1.60;;
23578;SDS011;11967;50.852;4.400;2022-10-16T04:03:31;5.82;;;1.55;;
23578;SDS011;11967;50.852;4.400;2022-10-16T04:05:57;3.90;;;1.80;;
23578;SDS011;11967;50.852;4.400;2022-10-16T04:08:23;6.32;;;2.20;;
23578;SDS011;11967;50.852;4.400;2022-10-16T04:10:48;6.43;;;1.60;;
23578;SDS011;11967;50.852;4.400;2022-10-16T04:13:14;6.28;;;1.83;;
23578;SDS011;11967;50.852;4.400;2022-10-16T04:15:40;4.63;;;1.55;;
23578;SDS011;11967;50.852;4.400;2022-10-16T04:18:05;4.38;;;1.60;;
23578;SDS011;11967;50.852;4.400;2022-10-16T04:20:32;5.88;;;1.80;;
23578;SDS011;11967;50.852;4.400;2022-10-16T04:22:58;5.07;;;2.00;;
23578;SDS011;11967;50.852;4.400;2022-10-16T04:25:24;5.10;;;1.88;;
23578;SDS011;11967;50.852;4.400;2022-10-16T04:27:52;4.95;;;1.85;;
23578;SDS011;11967;50.852;4.400;2022-10-16T04:30:18;4.53;;;1.60;;
23578;SDS011;11967;50.852;4.400;2022-10-16T04:32:47;6.10;;;1.88;;
23578;SDS011;11967;50.852;4.400;2022-10-16T04:35:17;3.83;;;1.67;;
23578;SDS011;11967;50.852;4.400;2022-10-16T04:37:44;6.13;;;1.70;;
23578;SDS011;11967;50.852;4.400;2022-10-16T04:40:10;7.25;;;1.67;;
23578;SDS011;11967;50.852;4.400;2022-10-16T04:42:36;4.00;;;1.70;;
23578;SDS011;11967;50.852;4.400;2022-10-16T04:45:02;4.75;;;1.73;;
23578;SDS011;11967;50.852;4.400;2022-10-16T04:47:28;5.43;;;1.67;;
23578;SDS011;11967;50.852;4.400;2022-10-16T04:49:53;3.65;;;1.60;;
23578;SDS011;11967;50.852;4.400;2022-10-16T04:52:19;4.18;;;1.83;;
23578;SDS011;11967;50.852;4.400;2022-10-16T04:54:46;4.22;;;1.75;;
23578;SDS011;11967;50.852;4.400;2022-10-16T04:57:12;5.43;;;1.67;;
23578;SDS011;11967;50.852;4.400;2022-10-16T04:59:37;3.35;;;1.85;;
23578;SDS011;11967;50.852;4.400;2022-10-16T05:02:03;4.82;;;1.60;;
23578;SDS011;11967;50.852;4.400;2022-10-16T05:04:29;6.57;;;2.20;;
23578;SDS011;11967;50.852;4.400;2022-10-16T05:06:54;5.50;;;2.10;;
23578;SDS011;11967;50.852;4.400;2022-10-16T05:09:20;6.03;;;2.00;;
23578;SDS011;11967;50.852;4.400;2022-10-16T05:11:45;4.25;;;2.00;;
23578;SDS011;11967;50.852;4.400;2022-10-16T05:14:11;4.63;;;2.00;;
23578;SDS011;11967;50.852;4.400;2022-10-16T05:16:37;3.30;;;1.70;;
23578;SDS011;11967;50.852;4.400;2022-10-16T05:19:02;5.50;;;2.10;;
23578;SDS011;11967;50.852;4.400;2022-10-16T05:21:28;4.95;;;1.80;;
23578;SDS011;11967;50.852;4.400;2022-10-16T05:23:53;5.38;;;1.85;;
23578;SDS011;11967;50.852;4.400;2022-10-16T05:26:20;3.45;;;1.60;;
23578;SDS011;11967;50.852;4.400;2022-10-16T05:28:45;6.80;;;2.30;;
23578;SDS011;11967;50.852;4.400;2022-10-16T05:31:11;4.30;;;2.15;;
23578;SDS011;11967;50.852;4.400;2022-10-16T05:33:37;7.22;;;2.15;;
23578;SDS011;11967;50.852;4.400;2022-10-16T05:36:03;6.75;;;1.80;;
23578;SDS011;11967;50.852;4.400;2022-10-16T05:38:31;4.25;;;2.00;;
23578;SDS011;11967;50.852;4.400;2022-10-16T05:40:56;3.58;;;1.88;;
23578;SDS011;11967;50.852;4.400;2022-10-16T05:43:22;7.18;;;2.08;;
23578;SDS011;11967;50.852;4.400;2022-10-16T05:45:58;6.72;;;2.42;;
23578;SDS011;11967;50.852;4.400;2022-10-16T05:48:26;6.82;;;2.05;;
23578;SDS011;11967;50.852;4.400;2022-10-16T05:53:31;3.63;;;1.83;;
23578;SDS011;11967;50.852;4.400;2022-10-16T05:55:57;6.45;;;1.80;;
23578;SDS011;11967;50.852;4.400;2022-10-16T05:58:24;6.03;;;2.50;;
23578;SDS011;11967;50.852;4.400;2022-10-16T06:00:58;8.73;;;2.03;;
23578;SDS011;11967;50.852;4.400;2022-10-16T06:03:28;4.60;;;1.55;;
23578;SDS011;11967;50.852;4.400;2022-10-16T06:05:54;2.90;;;1.98;;
23578;SDS011;11967;50.852;4.400;2022-10-16T06:08:20;4.22;;;2.05;;
23578;SDS011;11967;50.852;4.400;2022-10-16T06:10:47;4.65;;;2.00;;
23578;SDS011;11967;50.852;4.400;2022-10-16T06:13:13;3.33;;;1.58;;
23578;SDS011;11967;50.852;4.400;2022-10-16T06:15:40;4.90;;;2.13;;
23578;SDS011;11967;50.852;4.400;2022-10-16T06:18:08;5.40;;;1.80;;
23578;SDS011;11967;50.852;4.400;2022-10-16T06:20:34;7.97;;;2.00;;
23578;SDS011;11967;50.852;4.400;2022-10-16T06:23:00;4.45;;;1.98;;
23578;SDS011;11967;50.852;4.400;2022-10-16T06:25:26;5.15;;;2.40;;
23578;SDS011;11967;50.852;4.400;2022-10-16T06:27:52;7.78;;;2.40;;
23578;SDS011;11967;50.852;4.400;2022-10-16T06:30:17;7.05;;;2.00;;
23578;SDS011;11967;50.852;4.400;2022-10-16T06:32:43;8.68;;;2.22;;
23578;SDS011;11967;50.852;4.400;2022-10-16T06:35:08;4.60;;;1.95;;
23578;SDS011;11967;50.852;4.400;2022-10-16T06:37:34;4.78;;;1.80;;
23578;SDS011;11967;50.852;4.400;2022-10-16T06:40:00;4.55;;;1.70;;
23578;SDS011;11967;50.852;4.400;2022-10-16T06:42:25;6.35;;;2.00;;
23578;SDS011;11967;50.852;4.400;2022-10-16T06:44:51;3.40;;;1.98;;
23578;SDS011;11967;50.852;4.400;2022-10-16T06:47:17;6.15;;;1.65;;
23578;SDS011;11967;50.852;4.400;2022-10-16T06:49:42;7.25;;;2.20;;
23578;SDS011;11967;50.852;4.400;2022-10-16T06:52:08;6.38;;;2.00;;
23578;SDS011;11967;50.852;4.400;2022-10-16T06:54:34;7.10;;;2.10;;
23578;SDS011;11967;50.852;4.400;2022-10-16T06:56:59;4.45;;;1.60;;
23578;SDS011;11967;50.852;4.400;2022-10-16T06:59:27;4.55;;;2.00;;
23578;SDS011;11967;50.852;4.400;2022-10-16T07:01:53;8.88;;;2.47;;
23578;SDS011;11967;50.852;4.400;2022-10-16T07:04:18;4.63;;;2.13;;
23578;SDS011;11967;50.852;4.400;2022-10-16T07:06:44;6.10;;;2.08;;
23578;SDS011;11967;50.852;4.400;2022-10-16T07:09:10;4.95;;;1.80;;
23578;SDS011;11967;50.852;4.400;2022-10-16T07:11:37;8.77;;;2.42;;
23578;SDS011;11967;50.852;4.400;2022-10-16T07:14:04;7.40;;;2.20;;
23578;SDS011;11967;50.852;4.400;2022-10-16T07:16:37;6.32;;;2.17;;
23578;SDS011;11967;50.852;4.400;2022-10-16T07:19:03;6.32;;;2.13;;
23578;SDS011;11967;50.852;4.400;2022-10-16T07:21:30;3.08;;;2.03;;
23578;SDS011;11967;50.852;4.400;2022-10-16T07:24:01;6.63;;;2.42;;
23578;SDS011;11967;50.852;4.400;2022-10-16T07:26:28;3.72;;;1.98;;
23578;SDS011;11967;50.852;4.400;2022-10-16T07:28:55;5.10;;;2.13;;
23578;SDS011;11967;50.852;4.400;2022-10-16T07:31:22;4.57;;;2.10;;
23578;SDS011;11967;50.852;4.400;2022-10-16T07:33:48;6.70;;;3.47;;
23578;SDS011;11967;50.852;4.400;2022-10-16T07:36:15;5.63;;;2.65;;
23578;SDS011;11967;50.852;4.400;2022-10-16T07:38:42;5.32;;;2.25;;
23578;SDS011;11967;50.852;4.400;2022-10-16T07:41:11;5.93;;;2.00;;
23578;SDS011;11967;50.852;4.400;2022-10-16T07:43:38;6.88;;;2.20;;
23578;SDS011;11967;50.852;4.400;2022-10-16T07:46:04;6.40;;;2.42;;
23578;SDS011;11967;50.852;4.400;2022-10-16T07:48:31;6.57;;;2.63;;
23578;SDS011;11967;50.852;4.400;2022-10-16T07:51:01;8.23;;;2.42;;
23578;SDS011;11967;50.852;4.400;2022-10-16T07:53:30;4.75;;;2.30;;
23578;SDS011;11967;50.852;4.400;2022-10-16T07:55:57;7.05;;;2.30;;
23578;SDS011;11967;50.852;4.400;2022-10-16T07:58:27;7.32;;;2.30;;
23578;SDS011;11967;50.852;4.400;2022-10-16T08:00:53;4.13;;;1.90;;
23578;SDS011;11967;50.852;4.400;2022-10-16T08:03:20;4.60;;;2.20;;
23578;SDS011;11967;50.852;4.400;2022-10-16T08:05:45;9.10;;;3.28;;
23578;SDS011;11967;50.852;4.400;2022-10-16T08:08:13;8.73;;;2.10;;
23578;SDS011;11967;50.852;4.400;2022-10-16T08:10:40;5.43;;;2.45;;
23578;SDS011;11967;50.852;4.400;2022-10-16T08:13:06;4.63;;;2.42;;
23578;SDS011;11967;50.852;4.400;2022-10-16T08:15:31;8.90;;;2.30;;
23578;SDS011;11967;50.852;4.400;2022-10-16T08:17:58;11.23;;;2.55;;
23578;SDS011;11967;50.852;4.400;2022-10-16T08:20:25;4.40;;;2.15;;
23578;SDS011;11967;50.852;4.400;2022-10-16T08:22:51;7.15;;;2.17;;
23578;SDS011;11967;50.852;4.400;2022-10-16T08:25:18;6.05;;;2.10;;
23578;SDS011;11967;50.852;4.400;2022-10-16T08:27:44;6.10;;;1.92;;
23578;SDS011;11967;50.852;4.400;2022-10-16T08:30:10;4.95;;;1.80;;
23578;SDS011;11967;50.852;4.400;2022-10-16T08:32:37;8.32;;;2.05;;
23578;SDS011;11967;50.852;4.400;2022-10-16T08:35:02;6.10;;;2.30;;
23578;SDS011;11967;50.852;4.400;2022-10-16T08:37:31;6.70;;;1.90;;
23578;SDS011;11967;50.852;4.400;2022-10-16T08:39:57;6.10;;;1.80;;
23578;SDS011;11967;50.852;4.400;2022-10-16T08:51:01;5.78;;;1.95;;
23578;SDS011;11967;50.852;4.400;2022-10-16T08:56:13;6.88;;;1.80;;
23578;SDS011;11967;50.852;4.400;2022-10-16T08:58:39;10.20;;;1.88;;
23578;SDS011;11967;50.852;4.400;2022-10-16T09:01:09;8.18;;;1.90;;
23578;SDS011;11967;50.852;4.400;2022-10-16T09:23:00;9.63;;;2.45;;
23578;SDS011;11967;50.852;4.400;2022-10-16T09:25:37;9.45;;;1.77;;
23578;SDS011;11967;50.852;4.400;2022-10-16T09:28:04;9.65;;;2.10;;
23578;SDS011;11967;50.852;4.400;2022-10-16T09:30:30;6.68;;;1.67;;
23578;SDS011;11967;50.852;4.400;2022-10-16T09:32:56;4.47;;;1.48;;
23578;SDS011;11967;50.852;4.400;2022-10-16T09:35:31;12.07;;;1.67;;
23578;SDS011;11967;50.852;4.400;2022-10-16T09:38:03;9.68;;;2.08;;
23578;SDS011;11967;50.852;4.400;2022-10-16T09:40:33;5.68;;;1.52;;
23578;SDS011;11967;50.852;4.400;2022-10-16T09:43:23;8.00;;;1.88;;
23578;SDS011;11967;50.852;4.400;2022-10-16T09:48:23;6.82;;;1.52;;
23578;SDS011;11967;50.852;4.400;2022-10-16T09:50:56;5.72;;;1.58;;
23578;SDS011;11967;50.852;4.400;2022-10-16T09:53:22;4.85;;;1.70;;
23578;SDS011;11967;50.852;4.400;2022-10-16T09:55:52;5.95;;;2.17;;
23578;SDS011;11967;50.852;4.400;2022-10-16T09:58:22;8.48;;;1.67;;
23578;SDS011;11967;50.852;4.400;2022-10-16T10:00:50;6.15;;;1.50;;
23578;SDS011;11967;50.852;4.400;2022-10-16T10:03:35;5.10;;;1.58;;
23578;SDS011;11967;50.852;4.400;2022-10-16T10:06:16;10.85;;;1.52;;
23578;SDS011;11967;50.852;4.400;2022-10-16T10:08:54;5.75;;;1.73;;
23578;SDS011;11967;50.852;4.400;2022-10-16T10:16:51;4.88;;;1.42;;
23578;SDS011;11967;50.852;4.400;2022-10-16T10:19:26;4.68;;;1.50;;
23578;SDS011;11967;50.852;4.400;2022-10-16T10:21:52;4.97;;;1.60;;
23578;SDS011;11967;50.852;4.400;2022-10-16T10:24:18;6.65;;;1.92;;
23578;SDS011;11967;50.852;4.400;2022-10-16T10:26:47;5.93;;;1.50;;
23578;SDS011;11967;50.852;4.400;2022-10-16T10:29:32;5.90;;;1.38;;
23578;SDS011;11967;50.852;4.400;2022-10-16T10:32:24;7.63;;;1.55;;
23578;SDS011;11967;50.852;4.400;2022-10-16T10:35:22;7.20;;;1.50;;
23578;SDS011;11967;50.852;4.400;2022-10-16T10:46:08;7.38;;;1.50;;
23578;SDS011;11967;50.852;4.400;2022-10-16T10:48:51;6.30;;;1.63;;
23578;SDS011;11967;50.852;4.400;2022-10-16T10:51:36;6.60;;;1.48;;
23578;SDS011;11967;50.852;4.400;2022-10-16T10:57:03;3.90;;;1.65;;
23578;SDS011;11967;50.852;4.400;2022-10-16T10:59:46;7.50;;;1.40;;
23578;SDS011;11967;50.852;4.400;2022-10-16T11:02:41;5.30;;;1.40;;
23578;SDS011;11967;50.852;4.400;2022-10-16T11:08:07;4.28;;;1.40;;
23578;SDS011;11967;50.852;4.400;2022-10-16T11:10:45;6.47;;;1.10;;
23578;SDS011;11967;50.852;4.400;2022-10-16T11:15:45;5.45;;;1.25;;
23578;SDS011;11967;50.852;4.400;2022-10-16T11:18:19;6.57;;;1.40;;
23578;SDS011;11967;50.852;4.400;2022-10-16T11:20:54;3.70;;;1.20;;
23578;SDS011;11967;50.852;4.400;2022-10-16T11:25:57;3.60;;;1.58;;
23578;SDS011;11967;50.852;4.400;2022-10-16T11:28:29;6.07;;;1.73;;
23578;SDS011;11967;50.852;4.400;2022-10-16T11:38:41;6.47;;;1.45;;
23578;SDS011;11967;50.852;4.400;2022-10-16T11:47:02;4.70;;;1.70;;
23578;SDS011;11967;50.852;4.400;2022-10-16T11:49:53;9.57;;;1.90;;
23578;SDS011;11967;50.852;4.400;2022-10-16T11:56:06;5.70;;;1.38;;
23578;SDS011;11967;50.852;4.400;2022-10-16T11:58:36;6.82;;;2.00;;
23578;SDS011;11967;50.852;4.400;2022-10-16T12:06:12;2.58;;;0.90;;
23578;SDS011;11967;50.852;4.400;2022-10-16T12:08:52;6.15;;;1.60;;
23578;SDS011;11967;50.852;4.400;2022-10-16T12:11:40;3.83;;;1.10;;
23578;SDS011;11967;50.852;4.400;2022-10-16T12:19:22;4.65;;;1.30;;
23578;SDS011;11967;50.852;4.400;2022-10-16T12:21:49;3.58;;;1.08;;
23578;SDS011;11967;50.852;4.400;2022-10-16T12:24:36;5.50;;;1.02;;
23578;SDS011;11967;50.852;4.400;2022-10-16T12:27:04;4.72;;;1.10;;
23578;SDS011;11967;50.852;4.400;2022-10-16T12:29:43;7.22;;;1.42;;
23578;SDS011;11967;50.852;4.400;2022-10-16T12:32:29;5.70;;;2.00;;
23578;SDS011;11967;50.852;4.400;2022-10-16T12:34:56;4.72;;;1.20;;
23578;SDS011;11967;50.852;4.400;2022-10-16T12:37:32;1.83;;;0.98;;
23578;SDS011;11967;50.852;4.400;2022-10-16T12:40:10;4.78;;;1.17;;
23578;SDS011;11967;50.852;4.400;2022-10-16T12:42:56;3.90;;;1.05;;
23578;SDS011;11967;50.852;4.400;2022-10-16T12:45:32;4.28;;;1.10;;
23578;SDS011;11967;50.852;4.400;2022-10-16T12:47:59;2.78;;;1.10;;
23578;SDS011;11967;50.852;4.400;2022-10-16T12:50:36;3.25;;;0.90;;
23578;SDS011;11967;50.852;4.400;2022-10-16T12:53:16;1.77;;;0.93;;
23578;SDS011;11967;50.852;4.400;2022-10-16T12:55:50;3.40;;;0.90;;
23578;SDS011;11967;50.852;4.400;2022-10-16T13:00:58;3.28;;;1.05;;
23578;SDS011;11967;50.852;4.400;2022-10-16T13:09:18;2.95;;;0.98;;
23578;SDS011;11967;50.852;4.400;2022-10-16T13:14:48;4.18;;;1.10;;
23578;SDS011;11967;50.852;4.400;2022-10-16T13:17:36;4.90;;;1.00;;
23578;SDS011;11967;50.852;4.400;2022-10-16T13:28:30;2.85;;;1.13;;
23578;SDS011;11967;50.852;4.400;2022-10-16T13:30:58;2.10;;;0.93;;
23578;SDS011;11967;50.852;4.400;2022-10-16T13:35:58;4.03;;;1.35;;
23578;SDS011;11967;50.852;4.400;2022-10-16T13:38:25;5.65;;;1.17;;
23578;SDS011;11967;50.852;4.400;2022-10-16T13:43:24;3.92;;;1.10;;
23578;SDS011;11967;50.852;4.400;2022-10-16T13:46:03;4.80;;;1.20;;
23578;SDS011;11967;50.852;4.400;2022-10-16T13:48:31;6.07;;;1.30;;
23578;SDS011;11967;50.852;4.400;2022-10-16T13:51:03;5.90;;;1.50;;
23578;SDS011;11967;50.852;4.400;2022-10-16T13:53:34;5.03;;;1.05;;
23578;SDS011;11967;50.852;4.400;2022-10-16T13:56:04;4.88;;;1.40;;
23578;SDS011;11967;50.852;4.400;2022-10-16T13:58:34;8.15;;;1.58;;
23578;SDS011;11967;50.852;4.400;2022-10-16T14:01:02;5.85;;;1.17;;
23578;SDS011;11967;50.852;4.400;2022-10-16T14:03:30;6.13;;;1.10;;
23578;SDS011;11967;50.852;4.400;2022-10-16T14:06:02;5.35;;;1.45;;
23578;SDS011;11967;50.852;4.400;2022-10-16T14:08:31;6.95;;;1.25;;
23578;SDS011;11967;50.852;4.400;2022-10-16T14:10:57;4.20;;;1.42;;
23578;SDS011;11967;50.852;4.400;2022-10-16T14:13:29;6.15;;;1.20;;
23578;SDS011;11967;50.852;4.400;2022-10-16T14:15:58;4.07;;;1.27;;
23578;SDS011;11967;50.852;4.400;2022-10-16T14:18:28;6.28;;;1.33;;
23578;SDS011;11967;50.852;4.400;2022-10-16T14:20:54;6.32;;;1.58;;
23578;SDS011;11967;50.852;4.400;2022-10-16T14:23:35;4.55;;;1.25;;
23578;SDS011;11967;50.852;4.400;2022-10-16T14:28:34;4.07;;;1.15;;
23578;SDS011;11967;50.852;4.400;2022-10-16T14:31:02;4.13;;;1.50;;
23578;SDS011;11967;50.852;4.400;2022-10-16T14:33:44;5.80;;;1.70;;
23578;SDS011;11967;50.852;4.400;2022-10-16T14:36:13;7.28;;;1.60;;
23578;SDS011;11967;50.852;4.400;2022-10-16T14:41:43;7.13;;;1.70;;
23578;SDS011;11967;50.852;4.400;2022-10-16T14:44:11;6.47;;;1.52;;
23578;SDS011;11967;50.852;4.400;2022-10-16T14:46:38;3.95;;;1.40;;
23578;SDS011;11967;50.852;4.400;2022-10-16T14:51:37;3.88;;;1.30;;
23578;SDS011;11967;50.852;4.400;2022-10-16T14:54:10;6.35;;;1.63;;
23578;SDS011;11967;50.852;4.400;2022-10-16T15:02:00;4.60;;;1.77;;
23578;SDS011;11967;50.852;4.400;2022-10-16T15:04:45;6.28;;;1.80;;
23578;SDS011;11967;50.852;4.400;2022-10-16T15:07:11;7.20;;;2.00;;
23578;SDS011;11967;50.852;4.400;2022-10-16T15:09:37;4.55;;;1.63;;
23578;SDS011;11967;50.852;4.400;2022-10-16T15:12:02;7.28;;;2.13;;
23578;SDS011;11967;50.852;4.400;2022-10-16T15:14:28;9.90;;;1.83;;
23578;SDS011;11967;50.852;4.400;2022-10-16T15:16:54;6.63;;;1.48;;
23578;SDS011;11967;50.852;4.400;2022-10-16T15:19:19;6.38;;;1.70;;
23578;SDS011;11967;50.852;4.400;2022-10-16T15:21:48;4.82;;;1.88;;
23578;SDS011;11967;50.852;4.400;2022-10-16T15:24:14;7.32;;;2.05;;
23578;SDS011;11967;50.852;4.400;2022-10-16T15:26:40;8.18;;;2.00;;
23578;SDS011;11967;50.852;4.400;2022-10-16T15:29:06;6.35;;;2.03;;
23578;SDS011;11967;50.852;4.400;2022-10-16T15:31:33;6.07;;;2.45;;
23578;SDS011;11967;50.852;4.400;2022-10-16T15:33:59;7.38;;;2.25;;
23578;SDS011;11967;50.852;4.400;2022-10-16T15:36:29;8.50;;;2.40;;
23578;SDS011;11967;50.852;4.400;2022-10-16T15:38:58;6.82;;;2.55;;
23578;SDS011;11967;50.852;4.400;2022-10-16T15:41:24;8.32;;;3.20;;
23578;SDS011;11967;50.852;4.400;2022-10-16T15:43:51;16.25;;;5.57;;
23578;SDS011;11967;50.852;4.400;2022-10-16T15:46:21;12.48;;;4.15;;
23578;SDS011;11967;50.852;4.400;2022-10-16T15:48:48;6.18;;;2.83;;
23578;SDS011;11967;50.852;4.400;2022-10-16T15:51:15;8.52;;;2.50;;
23578;SDS011;11967;50.852;4.400;2022-10-16T15:53:41;6.00;;;2.45;;
23578;SDS011;11967;50.852;4.400;2022-10-16T15:56:08;8.13;;;2.60;;
23578;SDS011;11967;50.852;4.400;2022-10-16T15:58:34;7.47;;;2.17;;
23578;SDS011;11967;50.852;4.400;2022-10-16T16:01:00;9.70;;;4.95;;
23578;SDS011;11967;50.852;4.400;2022-10-16T16:03:27;7.57;;;2.88;;
23578;SDS011;11967;50.852;4.400;2022-10-16T16:05:53;7.38;;;2.22;;
23578;SDS011;11967;50.852;4.400;2022-10-16T16:08:19;8.45;;;2.50;;
23578;SDS011;11967;50.852;4.400;2022-10-16T16:10:45;6.45;;;2.30;;
23578;SDS011;11967;50.852;4.400;2022-10-16T16:13:11;5.72;;;2.10;;
23578;SDS011;11967;50.852;4.400;2022-10-16T16:15:40;5.35;;;2.03;;
23578;SDS011;11967;50.852;4.400;2022-10-16T16:18:06;6.05;;;2.20;;
23578;SDS011;11967;50.852;4.400;2022-10-16T16:20:34;5.63;;;2.20;;
23578;SDS011;11967;50.852;4.400;2022-10-16T16:22:59;7.93;;;2.20;;
23578;SDS011;11967;50.852;4.400;2022-10-16T16:25:25;7.78;;;2.30;;
23578;SDS011;11967;50.852;4.400;2022-10-16T16:27:51;9.02;;;2.72;;
23578;SDS011;11967;50.852;4.400;2022-10-16T16:30:16;7.95;;;2.72;;
23578;SDS011;11967;50.852;4.400;2022-10-16T16:32:44;8.52;;;2.60;;
23578;SDS011;11967;50.852;4.400;2022-10-16T16:35:09;5.15;;;2.45;;
23578;SDS011;11967;50.852;4.400;2022-10-16T16:37:35;6.15;;;2.80;;
23578;SDS011;11967;50.852;4.400;2022-10-16T16:40:01;5.32;;;2.70;;
23578;SDS011;11967;50.852;4.400;2022-10-16T16:42:27;13.00;;;3.17;;
23578;SDS011;11967;50.852;4.400;2022-10-16T16:44:53;6.22;;;2.50;;
23578;SDS011;11967;50.852;4.400;2022-10-16T16:47:19;5.82;;;2.72;;
23578;SDS011;11967;50.852;4.400;2022-10-16T16:49:44;6.70;;;2.80;;
23578;SDS011;11967;50.852;4.400;2022-10-16T16:52:11;7.65;;;3.13;;
23578;SDS011;11967;50.852;4.400;2022-10-16T16:54:38;7.95;;;2.95;;
23578;SDS011;11967;50.852;4.400;2022-10-16T16:57:04;5.85;;;3.10;;
23578;SDS011;11967;50.852;4.400;2022-10-16T16:59:29;5.95;;;2.80;;
23578;SDS011;11967;50.852;4.400;2022-10-16T17:01:57;5.32;;;3.10;;
23578;SDS011;11967;50.852;4.400;2022-10-16T17:04:26;6.88;;;3.30;;
23578;SDS011;11967;50.852;4.400;2022-10-16T17:06:52;9.07;;;3.20;;
23578;SDS011;11967;50.852;4.400;2022-10-16T17:09:19;8.52;;;3.25;;
23578;SDS011;11967;50.852;4.400;2022-10-16T17:11:45;13.00;;;3.78;;
23578;SDS011;11967;50.852;4.400;2022-10-16T17:14:13;8.63;;;3.15;;
23578;SDS011;11967;50.852;4.400;2022-10-16T17:16:39;10.40;;;3.33;;
23578;SDS011;11967;50.852;4.400;2022-10-16T17:19:10;8.77;;;3.33;;
23578;SDS011;11967;50.852;4.400;2022-10-16T17:21:38;9.55;;;3.17;;
23578;SDS011;11967;50.852;4.400;2022-10-16T17:24:04;10.10;;;3.50;;